Time;durP1;ratioP1;P1;durP2;ratioP2;P2;SDS_P1;SDS_P2;PMS_P1;PMS_P2;Temp;Humidity;BMP_temperature;BMP_pressure;BME280_temperature;BME280_humidity;BME280_pressure;Samples;Min_cycle;Max_cycle;Signal;HPM_P1;HPM_P2
2023/05/23 18:11:33;;;;;;;29.33;5.80;;;;;;;;;;5002590;28;21270;-58
2023/05/23 18:13:58;;;;;;;22.17;4.93;;;;;;;;;;4991298;28;20026;-58
2023/05/23 18:16:24;;;;;;;29.50;5.67;;;;;;;;;;4998568;28;20041;-58
2023/05/23 18:18:50;;;;;;;21.43;4.70;;;;;;;;;;5008688;28;20384;-57
2023/05/23 18:21:15;;;;;;;19.05;4.53;;;;;;;;;;5010536;28;20864;-59
2023/05/23 18:23:40;;;;;;;18.40;4.27;;;;;;;;;;5009005;28;20597;-57
2023/05/23 18:26:06;;;;;;;20.83;4.03;;;;;;;;;;5008562;28;20765;-56
2023/05/23 18:28:31;;;;;;;30.40;5.97;;;;;;;;;;5008116;28;20037;-56
2023/05/23 18:30:56;;;;;;;20.33;4.50;;;;;;;;;;5008192;28;21212;-59
2023/05/23 18:33:21;;;;;;;22.65;4.80;;;;;;;;;;5008826;28;20017;-58
2023/05/23 18:35:48;;;;;;;19.77;4.25;;;;;;;;;;5009881;28;20679;-58
2023/05/23 18:38:13;;;;;;;17.85;4.13;;;;;;;;;;5009074;28;20034;-56
2023/05/23 18:40:39;;;;;;;28.85;5.80;;;;;;;;;;5007966;28;20458;-57
2023/05/23 18:43:04;;;;;;;15.25;4.18;;;;;;;;;;5010109;28;20639;-56
2023/05/23 18:45:29;;;;;;;29.48;5.47;;;;;;;;;;5007209;28;20064;-57
2023/05/23 18:47:55;;;;;;;18.10;4.00;;;;;;;;;;5007799;28;20025;-57
2023/05/23 18:50:20;;;;;;;15.80;3.83;;;;;;;;;;5009968;28;20032;-59
2023/05/23 18:52:45;;;;;;;24.87;4.40;;;;;;;;;;5006525;28;20463;-58
2023/05/23 18:55:11;;;;;;;26.35;5.32;;;;;;;;;;5003429;28;20260;-56
2023/05/23 18:57:36;;;;;;;32.08;6.15;;;;;;;;;;5002595;28;20541;-59
2023/05/23 19:00:02;;;;;;;27.27;5.22;;;;;;;;;;5002784;28;20053;-58
2023/05/23 19:02:28;;;;;;;33.92;6.20;;;;;;;;;;5003161;28;20041;-57
2023/05/23 19:04:53;;;;;;;19.48;4.07;;;;;;;;;;5006308;28;20051;-57
2023/05/23 19:07:18;;;;;;;28.10;5.40;;;;;;;;;;5006555;28;20034;-58
2023/05/23 19:09:45;;;;;;;20.80;4.40;;;;;;;;;;4999266;28;20494;-58
2023/05/23 19:12:10;;;;;;;20.63;4.53;;;;;;;;;;5008347;28;20061;-56
2023/05/23 19:14:35;;;;;;;26.80;5.63;;;;;;;;;;5007139;28;20021;-56
2023/05/23 19:17:04;;;;;;;19.30;4.38;;;;;;;;;;5008642;28;20284;-59
2023/05/23 19:19:29;;;;;;;32.55;6.00;;;;;;;;;;5008889;28;20041;-56
2023/05/23 19:21:55;;;;;;;17.60;4.55;;;;;;;;;;5001227;28;20042;-58
2023/05/23 19:24:20;;;;;;;21.17;4.78;;;;;;;;;;4996752;28;20013;-58
2023/05/23 19:26:45;;;;;;;17.67;3.63;;;;;;;;;;4994391;28;20050;-59
2023/05/23 19:29:11;;;;;;;22.07;4.87;;;;;;;;;;4995137;28;20069;-56
2023/05/23 19:31:36;;;;;;;33.03;6.10;;;;;;;;;;4994227;28;20277;-59
2023/05/23 19:34:02;;;;;;;23.52;4.80;;;;;;;;;;4995949;28;20013;-58
2023/05/23 19:36:27;;;;;;;23.02;4.95;;;;;;;;;;4994313;28;20561;-59
2023/05/23 19:38:52;;;;;;;19.83;4.27;;;;;;;;;;4996880;28;20426;-59
2023/05/23 19:41:18;;;;;;;19.23;4.33;;;;;;;;;;4995192;28;21245;-58
2023/05/23 19:43:43;;;;;;;30.07;6.27;;;;;;;;;;4994140;28;20387;-57
2023/05/23 19:46:08;;;;;;;21.53;4.70;;;;;;;;;;4994483;28;20376;-59
2023/05/23 19:48:33;;;;;;;28.70;5.93;;;;;;;;;;4993882;28;20029;-59
2023/05/23 19:50:58;;;;;;;25.23;5.50;;;;;;;;;;4993989;28;20049;-60
2023/05/23 19:53:24;;;;;;;19.40;4.80;;;;;;;;;;4996252;28;20311;-57
2023/05/23 19:55:49;;;;;;;19.17;4.47;;;;;;;;;;4993236;28;20161;-56
2023/05/23 19:58:15;;;;;;;20.27;4.72;;;;;;;;;;4994888;28;20030;-58
2023/05/23 20:00:40;;;;;;;32.10;6.37;;;;;;;;;;4994287;28;20038;-57
2023/05/23 20:03:05;;;;;;;19.35;4.10;;;;;;;;;;4994334;28;20323;-60
2023/05/23 20:05:31;;;;;;;36.27;6.57;;;;;;;;;;4992849;28;20034;-58
2023/05/23 20:07:56;;;;;;;30.48;5.95;;;;;;;;;;4994924;28;20281;-56
2023/05/23 20:10:21;;;;;;;28.53;6.10;;;;;;;;;;4993830;28;20110;-56
2023/05/23 20:12:46;;;;;;;23.97;5.03;;;;;;;;;;4993842;28;20292;-57
2023/05/23 20:15:12;;;;;;;21.15;4.95;;;;;;;;;;4994251;28;20296;-57
2023/05/23 20:17:37;;;;;;;42.55;7.20;;;;;;;;;;4993663;28;20105;-59
2023/05/23 20:20:03;;;;;;;24.30;5.00;;;;;;;;;;4995127;28;20022;-57
2023/05/23 20:22:28;;;;;;;26.80;5.85;;;;;;;;;;4993362;28;20281;-57
2023/05/23 20:24:54;;;;;;;32.33;6.00;;;;;;;;;;4994761;28;20036;-60
2023/05/23 20:27:19;;;;;;;23.48;5.00;;;;;;;;;;4994856;28;20056;-60
2023/05/23 20:29:44;;;;;;;124.20;11.27;;;;;;;;;;4994053;28;20132;-58
2023/05/23 20:32:09;;;;;;;97.40;8.45;;;;;;;;;;4995657;28;20403;-57
2023/05/23 20:34:35;;;;;;;127.03;10.45;;;;;;;;;;4992640;28;20025;-58
2023/05/23 20:37:00;;;;;;;102.28;8.73;;;;;;;;;;4994481;28;20100;-58
2023/05/23 20:39:26;;;;;;;87.97;8.32;;;;;;;;;;4994764;28;20041;-59
2023/05/23 20:41:52;;;;;;;80.55;7.68;;;;;;;;;;4992235;28;20030;-57
2023/05/23 20:44:17;;;;;;;87.25;9.18;;;;;;;;;;4993925;28;20139;-57
2023/05/23 20:46:43;;;;;;;128.18;10.88;;;;;;;;;;4991027;28;20412;-58
2023/05/23 20:49:09;;;;;;;98.63;8.57;;;;;;;;;;4992086;28;21398;-57
2023/05/23 20:51:36;;;;;;;131.57;11.20;;;;;;;;;;4989710;28;20446;-57
2023/05/23 20:54:02;;;;;;;92.10;7.85;;;;;;;;;;4993112;28;20034;-57
2023/05/23 20:56:27;;;;;;;94.45;7.88;;;;;;;;;;4991500;28;20163;-57
2023/05/23 20:58:52;;;;;;;83.70;7.55;;;;;;;;;;4989823;28;20030;-57
2023/05/23 21:01:21;;;;;;;81.70;7.45;;;;;;;;;;4992664;28;20045;-56
2023/05/23 21:03:46;;;;;;;128.48;10.40;;;;;;;;;;4992692;28;20766;-60
2023/05/23 21:06:12;;;;;;;85.55;7.57;;;;;;;;;;4993282;28;20041;-57
2023/05/23 21:08:37;;;;;;;158.50;12.20;;;;;;;;;;4991683;28;20710;-58
2023/05/23 21:11:02;;;;;;;98.27;8.63;;;;;;;;;;4993075;28;20392;-59
2023/05/23 21:13:27;;;;;;;68.03;6.73;;;;;;;;;;4992408;28;20355;-60
2023/05/23 21:15:52;;;;;;;93.23;7.87;;;;;;;;;;4991411;28;20292;-58
2023/05/23 21:18:18;;;;;;;88.90;7.87;;;;;;;;;;4994158;28;20281;-58
2023/05/23 21:20:43;;;;;;;117.70;10.95;;;;;;;;;;4992499;28;20935;-58
2023/05/23 21:23:08;;;;;;;90.68;7.63;;;;;;;;;;4993299;28;20034;-57
2023/05/23 21:25:33;;;;;;;120.25;10.10;;;;;;;;;;4990747;28;20554;-59
2023/05/23 21:27:59;;;;;;;98.40;8.25;;;;;;;;;;4994049;28;20046;-58
2023/05/23 21:30:24;;;;;;;88.13;8.07;;;;;;;;;;4992717;28;20120;-57
2023/05/23 21:32:50;;;;;;;113.72;9.95;;;;;;;;;;4991962;28;20026;-56
2023/05/23 21:35:16;;;;;;;105.78;8.93;;;;;;;;;;4992891;28;20387;-59
2023/05/23 21:37:41;;;;;;;123.38;9.98;;;;;;;;;;4992743;28;20535;-59
2023/05/23 21:40:07;;;;;;;92.07;8.10;;;;;;;;;;4991963;28;20030;-58
2023/05/23 21:42:32;;;;;;;83.60;7.28;;;;;;;;;;4994611;28;20534;-57
2023/05/23 21:44:57;;;;;;;66.55;6.35;;;;;;;;;;4994051;28;20026;-54
